createdAt,value
2018-09-06T00:01:46.505Z,25.28
2018-09-06T00:06:50.180Z,25.27
2018-09-06T00:11:53.933Z,25.22
2018-09-06T00:16:57.564Z,25.19
2018-09-06T00:22:01.179Z,25.13
2018-09-06T00:27:05.263Z,25.06
2018-09-06T00:32:09.030Z,25.00
2018-09-06T00:37:12.675Z,24.95
2018-09-06T00:42:16.310Z,24.87
2018-09-06T00:47:20.035Z,24.80
2018-09-06T00:52:23.873Z,24.76
2018-09-06T00:57:27.535Z,24.72
2018-09-06T01:02:31.238Z,24.66
2018-09-06T01:07:34.891Z,24.61
2018-09-06T01:12:38.509Z,24.49
2018-09-06T01:17:42.148Z,24.52
2018-09-06T01:22:45.851Z,24.47
2018-09-06T01:27:49.505Z,24.44
2018-09-06T01:32:53.168Z,24.40
2018-09-06T01:37:57.039Z,24.36
2018-09-06T01:43:00.784Z,24.32
2018-09-06T01:48:04.440Z,24.30
2018-09-06T01:53:08.059Z,24.26
2018-09-06T01:58:12.250Z,24.25
2018-09-06T02:03:15.964Z,24.20
2018-09-06T02:08:19.567Z,24.16
2018-09-06T02:13:23.190Z,24.13
2018-09-06T02:18:26.836Z,24.09
2018-09-06T02:23:30.707Z,24.08
2018-09-06T02:28:34.388Z,24.05
2018-09-06T02:33:38.094Z,24.01
2018-09-06T02:38:41.714Z,23.99
2018-09-06T02:43:45.310Z,23.97
2018-09-06T02:48:49.023Z,23.96
2018-09-06T02:53:52.683Z,23.93
2018-09-06T02:58:56.344Z,23.91
2018-09-06T03:03:59.978Z,23.89
2018-09-06T03:09:05.122Z,23.88
2018-09-06T03:14:09.446Z,23.86
2018-09-06T03:19:13.081Z,23.84
2018-09-06T03:24:16.741Z,23.83
2018-09-06T03:29:20.393Z,23.80
2018-09-06T03:34:24.077Z,23.80
2018-09-06T03:39:27.701Z,23.77
2018-09-06T03:44:31.348Z,23.74
2018-09-06T03:49:34.985Z,23.73
2018-09-06T03:54:38.635Z,23.72
2018-09-06T03:59:42.230Z,23.71
2018-09-06T04:04:45.866Z,23.69
2018-09-06T04:09:49.499Z,23.67
2018-09-06T04:14:53.150Z,23.66
2018-09-06T04:19:56.787Z,23.47
2018-09-06T04:25:00.372Z,23.35
2018-09-06T04:30:04.891Z,23.30
2018-09-06T04:35:08.533Z,23.25
2018-09-06T04:40:12.179Z,23.20
2018-09-06T04:45:15.815Z,23.18
2018-09-06T04:50:19.510Z,23.14
2018-09-06T04:55:23.241Z,23.11
2018-09-06T05:00:26.928Z,23.08
2018-09-06T05:05:30.562Z,23.06
2018-09-06T05:10:34.204Z,23.03
2018-09-06T05:15:37.841Z,23.02
2018-09-06T05:20:41.452Z,22.99
2018-09-06T05:25:45.059Z,22.97
2018-09-06T05:30:48.729Z,22.96
2018-09-06T05:35:52.288Z,22.95
2018-09-06T05:40:55.981Z,22.93
2018-09-06T05:45:59.665Z,22.45
2018-09-06T05:51:03.297Z,21.39
2018-09-06T05:56:07.061Z,20.95
2018-09-06T06:01:10.723Z,20.82
2018-09-06T06:06:14.391Z,20.74
2018-09-06T06:11:18.881Z,20.54
2018-09-06T06:16:22.562Z,20.55
2018-09-06T06:21:26.186Z,21.33
2018-09-06T06:26:29.797Z,21.78
2018-09-06T06:31:33.441Z,21.96
2018-09-06T06:36:37.092Z,22.09
2018-09-06T06:41:41.157Z,22.18
2018-09-06T06:46:44.769Z,22.28
2018-09-06T06:51:48.474Z,22.34
2018-09-06T06:56:52.118Z,22.40
2018-09-06T07:01:55.710Z,22.46
2018-09-06T07:06:59.400Z,22.51
2018-09-06T07:12:02.947Z,22.55
2018-09-06T07:17:06.889Z,22.60
2018-09-06T07:22:10.501Z,22.64
2018-09-06T07:27:14.122Z,22.68
2018-09-06T07:32:17.747Z,22.71
2018-09-06T07:37:21.470Z,22.75
2018-09-06T07:42:25.320Z,22.79
2018-09-06T07:47:28.930Z,22.82
2018-09-06T07:52:32.769Z,22.86
2018-09-06T07:57:36.754Z,22.89
2018-09-06T08:02:40.430Z,22.86
2018-09-06T08:07:44.029Z,22.94
2018-09-06T08:12:47.661Z,22.96
2018-09-06T08:17:51.234Z,23.01
2018-09-06T08:22:54.945Z,23.04
2018-09-06T08:27:58.575Z,23.00
2018-09-06T08:33:02.251Z,23.10
2018-09-06T08:38:05.880Z,23.12
2018-09-06T08:43:09.587Z,23.15
2018-09-06T08:48:13.189Z,23.16
2018-09-06T08:53:16.856Z,23.19
2018-09-06T08:58:20.861Z,23.21
2018-09-06T09:03:24.500Z,23.24
2018-09-06T09:08:28.162Z,23.26
2018-09-06T09:13:31.926Z,23.28
2018-09-06T09:18:35.540Z,23.30
2018-09-06T09:23:39.232Z,23.33
2018-09-06T09:28:42.940Z,23.35
2018-09-06T09:33:46.794Z,23.36
2018-09-06T09:38:50.490Z,23.39
2018-09-06T09:43:54.225Z,23.41
2018-09-06T09:48:57.885Z,23.42
2018-09-06T09:54:01.558Z,23.43
2018-09-06T09:59:05.261Z,23.45
2018-09-06T10:04:14.182Z,23.46
2018-09-06T10:09:21.017Z,23.49
2018-09-06T10:14:24.769Z,23.50
2018-09-06T10:19:28.456Z,23.51
2018-09-06T10:24:32.107Z,23.53
2018-09-06T10:29:36.022Z,23.53
2018-09-06T10:34:39.615Z,23.54
2018-09-06T10:39:43.205Z,23.56
2018-09-06T10:44:46.889Z,23.58
2018-09-06T10:49:50.547Z,23.59
2018-09-06T10:54:54.178Z,23.62
2018-09-06T10:59:58.028Z,23.63
2018-09-06T11:05:02.235Z,23.65
2018-09-06T11:10:06.133Z,23.67
2018-09-06T11:15:09.786Z,23.68
2018-09-06T11:20:13.433Z,23.69
2018-09-06T11:25:17.142Z,23.72
2018-09-06T11:30:20.764Z,23.74
2018-09-06T11:35:24.371Z,23.75
2018-09-06T11:40:28.122Z,23.77
2018-09-06T11:45:31.752Z,23.78
2018-09-06T11:50:35.450Z,23.80
2018-09-06T11:55:39.109Z,23.84
2018-09-06T12:00:44.413Z,23.83
2018-09-06T12:05:48.077Z,23.87
2018-09-06T12:10:51.814Z,23.90
2018-09-06T12:15:55.522Z,23.90
2018-09-06T12:20:59.256Z,23.93
2018-09-06T12:26:02.897Z,23.95
2018-09-06T12:31:06.622Z,23.96
2018-09-06T12:36:10.256Z,23.98
2018-09-06T12:41:13.878Z,24.00
2018-09-06T12:46:17.530Z,24.01
2018-09-06T12:51:21.184Z,24.03
2018-09-06T12:56:24.812Z,24.06
2018-09-06T13:01:28.489Z,24.06
2018-09-06T13:06:32.201Z,24.08
2018-09-06T13:11:36.306Z,24.10
2018-09-06T13:16:39.947Z,24.11
2018-09-06T13:21:43.562Z,24.10
2018-09-06T13:26:47.413Z,24.13
2018-09-06T13:31:51.031Z,24.11
2018-09-06T13:36:54.673Z,24.14
2018-09-06T13:41:58.298Z,24.12
2018-09-06T13:47:01.968Z,24.13
2018-09-06T13:52:05.762Z,24.09
2018-09-06T13:57:09.426Z,24.09
2018-09-06T14:02:13.088Z,24.10
2018-09-06T14:07:16.691Z,24.09
2018-09-06T14:12:20.247Z,24.09
2018-09-06T14:17:24.013Z,24.09
2018-09-06T14:22:27.911Z,24.10
2018-09-06T14:27:31.723Z,24.15
2018-09-06T14:32:35.414Z,24.10
2018-09-06T14:37:39.005Z,24.10
2018-09-06T14:42:42.627Z,24.10
2018-09-06T14:47:46.321Z,24.11
2018-09-06T14:52:50.087Z,24.13
2018-09-06T14:57:53.718Z,24.14
2018-09-06T15:02:57.382Z,24.15
2018-09-06T15:08:01.058Z,24.13
2018-09-06T15:13:04.697Z,24.14
2018-09-06T15:18:08.299Z,24.14
2018-09-06T15:23:11.966Z,24.16
2018-09-06T15:28:15.746Z,24.20
2018-09-06T15:33:19.373Z,24.20
2018-09-06T15:38:23.050Z,24.21
2018-09-06T15:43:26.754Z,24.28
2018-09-06T15:48:30.359Z,24.30
2018-09-06T15:53:33.982Z,24.33
2018-09-06T15:58:37.647Z,24.36
2018-09-06T16:03:41.259Z,24.36
2018-09-06T16:08:44.920Z,24.38
2018-09-06T16:13:48.514Z,24.37
2018-09-06T16:18:52.164Z,24.39
2018-09-06T16:23:55.859Z,24.38
2018-09-06T16:28:59.441Z,24.37
2018-09-06T16:34:03.089Z,24.36
2018-09-06T16:39:08.776Z,24.35
2018-09-06T16:44:12.420Z,24.35
2018-09-06T16:49:16.015Z,24.36
2018-09-06T16:54:19.759Z,24.35
2018-09-06T16:59:23.476Z,24.37
2018-09-06T17:04:27.092Z,24.40
2018-09-06T17:09:30.751Z,24.42
2018-09-06T17:14:34.390Z,24.46
2018-09-06T17:19:37.989Z,24.49
2018-09-06T17:24:41.801Z,24.53
2018-09-06T17:29:45.489Z,24.56
2018-09-06T17:34:49.049Z,24.59
2018-09-06T17:39:52.702Z,24.66
2018-09-06T17:44:56.369Z,24.69
2018-09-06T17:50:00.230Z,24.70
2018-09-06T17:55:04.192Z,24.70
2018-09-06T18:00:07.960Z,24.70
2018-09-06T18:05:11.737Z,24.71
2018-09-06T18:10:15.331Z,24.73
2018-09-06T18:15:19.150Z,24.74
2018-09-06T18:20:22.815Z,24.75
2018-09-06T18:25:26.640Z,24.81
2018-09-06T18:30:30.953Z,24.83
2018-09-06T18:35:34.715Z,24.83
2018-09-06T18:40:38.399Z,24.81
2018-09-06T18:45:42.052Z,24.85
2018-09-06T18:50:45.800Z,24.86
2018-09-06T18:55:49.404Z,24.88
2018-09-06T19:00:53.010Z,24.90
2018-09-06T19:05:56.693Z,24.90
2018-09-06T19:11:00.503Z,24.91
2018-09-06T19:16:04.238Z,24.91
2018-09-06T19:21:07.847Z,24.94
2018-09-06T19:26:11.572Z,24.93
2018-09-06T19:31:15.280Z,24.94
2018-09-06T19:36:18.985Z,24.96
2018-09-06T19:41:22.625Z,24.95
2018-09-06T19:46:26.228Z,24.99
2018-09-06T19:51:29.892Z,25.01
2018-09-06T19:56:33.520Z,25.04
2018-09-06T20:01:37.288Z,25.07
2018-09-06T20:06:41.052Z,25.06
2018-09-06T20:11:44.693Z,25.04
2018-09-06T20:16:48.385Z,25.06
2018-09-06T20:21:52.017Z,25.06
2018-09-06T20:26:55.680Z,25.08
2018-09-06T20:31:59.284Z,25.07
2018-09-06T20:37:03.107Z,25.09
2018-09-06T20:42:06.809Z,25.03
2018-09-06T20:47:10.488Z,25.11
2018-09-06T20:52:14.122Z,25.14
2018-09-06T20:57:18.034Z,25.18
2018-09-06T21:02:22.111Z,25.14
2018-09-06T21:07:27.809Z,25.14
2018-09-06T21:12:31.900Z,25.17
2018-09-06T21:17:35.523Z,25.17
2018-09-06T21:22:39.205Z,25.15
2018-09-06T21:27:42.867Z,25.17
2018-09-06T21:32:46.531Z,25.18
2018-09-06T21:37:50.303Z,25.21
2018-09-06T21:42:53.918Z,25.23
2018-09-06T21:47:57.998Z,25.23
2018-09-06T21:53:01.682Z,25.19
2018-09-06T21:58:05.538Z,25.36
2018-09-06T22:03:14.285Z,25.37
2018-09-06T22:08:24.231Z,25.39
2018-09-06T22:13:27.842Z,25.41
2018-09-06T22:18:31.905Z,25.43
2018-09-06T22:23:35.556Z,25.46
2018-09-06T22:28:39.202Z,25.49
2018-09-06T22:33:42.903Z,25.51
2018-09-06T22:38:46.771Z,25.53
2018-09-06T22:43:50.405Z,25.53
2018-09-06T22:48:54.282Z,25.55
2018-09-06T22:53:58.047Z,25.57
2018-09-06T22:59:01.970Z,25.59
2018-09-06T23:04:06.107Z,25.59
2018-09-06T23:09:10.038Z,25.59
2018-09-06T23:14:13.703Z,25.61
2018-09-06T23:19:17.556Z,25.60
2018-09-06T23:24:21.446Z,25.61
2018-09-06T23:29:25.048Z,25.63
2018-09-06T23:34:32.863Z,25.65
2018-09-06T23:39:36.475Z,25.64
2018-09-06T23:44:40.128Z,25.61
2018-09-06T23:49:43.780Z,25.56
2018-09-06T23:54:47.467Z,25.53
2018-09-06T23:59:51.126Z,25.48
